Time;durP1;ratioP1;P1;durP2;ratioP2;P2;SDS_P1;SDS_P2;PMS_P1;PMS_P2;Temp;Humidity;BMP_temperature;BMP_pressure;BME280_temperature;BME280_humidity;BME280_pressure;Samples;Min_cycle;Max_cycle;Signal;HPM_P1;HPM_P2
2021/07/17 00:00:14;;;;;;;26.52;6.82;;;21.10;91.30;;;;;;5010238;28;20259;-73
2021/07/17 00:02:42;;;;;;;32.40;7.47;;;21.10;91.40;;;;;;5011624;28;20207;-73
2021/07/17 00:05:11;;;;;;;26.90;7.00;;;21.00;91.50;;;;;;5012321;28;20207;-72
2021/07/17 00:07:38;;;;;;;28.70;6.75;;;21.00;91.60;;;;;;5011572;28;20263;-70
2021/07/17 00:10:06;;;;;;;27.10;6.78;;;21.00;91.80;;;;;;5008571;28;20209;-72
2021/07/17 00:12:33;;;;;;;33.55;7.57;;;21.00;91.90;;;;;;5010760;28;20275;-72
2021/07/17 00:15:01;;;;;;;31.02;7.22;;;21.00;91.90;;;;;;5012966;28;20204;-70
2021/07/17 00:17:28;;;;;;;27.15;7.55;;;21.00;92.00;;;;;;5010965;28;20613;-72
2021/07/17 00:19:55;;;;;;;31.55;7.20;;;20.90;92.00;;;;;;5011291;28;20672;-71
2021/07/17 00:22:22;;;;;;;26.90;7.07;;;20.90;92.10;;;;;;5011798;28;20205;-74
2021/07/17 00:24:49;;;;;;;33.58;7.78;;;20.80;92.20;;;;;;5010712;28;20208;-73
2021/07/17 00:27:16;;;;;;;29.73;6.85;;;20.80;92.30;;;;;;5010798;28;20204;-72
2021/07/17 00:29:45;;;;;;;36.58;6.90;;;20.80;92.40;;;;;;4988841;28;20209;-73
2021/07/17 00:32:13;;;;;;;23.58;6.95;;;20.70;92.50;;;;;;5009863;28;20243;-72
2021/07/17 00:34:40;;;;;;;29.08;7.20;;;20.70;92.60;;;;;;5009617;28;20216;-70
2021/07/17 00:37:06;;;;;;;26.42;6.70;;;20.60;92.70;;;;;;5008930;28;20192;-73
2021/07/17 00:39:33;;;;;;;32.38;6.97;;;20.60;92.80;;;;;;5010782;28;20204;-70
2021/07/17 00:42:00;;;;;;;32.38;7.18;;;20.50;92.90;;;;;;4996822;28;20267;-73
2021/07/17 00:44:27;;;;;;;22.40;6.97;;;20.50;92.90;;;;;;5012357;28;20555;-71
2021/07/17 00:46:54;;;;;;;37.75;7.47;;;20.40;93.00;;;;;;5009883;28;20270;-71
2021/07/17 00:49:28;;;;;;;25.45;7.28;;;20.40;93.10;;;;;;4994689;28;20216;-74
2021/07/17 00:51:55;;;;;;;31.83;7.22;;;20.40;93.20;;;;;;5009138;28;20274;-73
2021/07/17 00:54:24;;;;;;;31.35;8.15;;;20.30;93.30;;;;;;5007638;28;20207;-72
2021/07/17 00:56:53;;;;;;;28.73;7.53;;;20.30;93.40;;;;;;5012626;28;20215;-73
2021/07/17 00:59:23;;;;;;;26.02;6.65;;;20.20;93.90;;;;;;5006246;28;20208;-69
2021/07/17 01:01:52;;;;;;;30.08;7.68;;;20.20;93.70;;;;;;5012533;28;20212;-72
2021/07/17 01:04:20;;;;;;;25.15;7.00;;;20.20;93.80;;;;;;5007857;28;20266;-71
2021/07/17 01:06:50;;;;;;;32.10;7.20;;;20.10;93.80;;;;;;5012175;28;20211;-72
2021/07/17 01:09:17;;;;;;;35.58;7.63;;;20.10;93.90;;;;;;5007919;28;20227;-71
2021/07/17 01:11:44;;;;;;;29.85;7.57;;;20.10;93.90;;;;;;4993214;28;20611;-70
2021/07/17 01:14:11;;;;;;;30.42;7.65;;;20.10;93.90;;;;;;5008999;28;20200;-73
2021/07/17 01:16:39;;;;;;;30.38;7.18;;;20.00;94.00;;;;;;5012508;28;20311;-69
2021/07/17 01:19:11;;;;;;;33.30;7.88;;;20.00;94.10;;;;;;5006213;28;20205;-69
2021/07/17 01:21:39;;;;;;;25.23;7.15;;;19.90;94.10;;;;;;5011854;28;20212;-71
2021/07/17 01:24:06;;;;;;;27.63;7.03;;;19.90;94.20;;;;;;5009690;28;20752;-73
2021/07/17 01:26:33;;;;;;;25.58;7.20;;;19.90;94.30;;;;;;5011067;28;20212;-70
2021/07/17 01:29:00;;;;;;;29.45;8.15;;;19.90;94.40;;;;;;5006908;28;20270;-72
2021/07/17 01:31:29;;;;;;;22.95;7.10;;;19.80;94.50;;;;;;5010822;28;20200;-69
2021/07/17 01:33:55;;;;;;;30.10;7.32;;;19.80;94.50;;;;;;5012894;28;20278;-71
2021/07/17 01:36:22;;;;;;;29.38;7.35;;;19.80;94.70;;;;;;5015043;28;20271;-73
2021/07/17 01:38:50;;;;;;;27.90;7.53;;;19.70;94.70;;;;;;5011733;28;20259;-73
2021/07/17 01:41:17;;;;;;;25.55;7.43;;;19.70;94.70;;;;;;5014484;28;20253;-70
2021/07/17 01:43:44;;;;;;;26.70;7.45;;;19.70;94.80;;;;;;5012611;28;20288;-72
2021/07/17 01:46:11;;;;;;;26.23;7.38;;;19.60;94.90;;;;;;5015023;28;20201;-71
2021/07/17 01:48:38;;;;;;;29.17;7.97;;;19.60;95.00;;;;;;5011545;28;20217;-70
2021/07/17 01:51:05;;;;;;;26.17;7.80;;;19.50;95.00;;;;;;5002215;28;20212;-71
2021/07/17 01:53:32;;;;;;;30.15;7.72;;;19.50;95.10;;;;;;5011098;28;20204;-71
2021/07/17 01:56:00;;;;;;;21.80;6.85;;;19.50;95.20;;;;;;5014696;28;20212;-74
2021/07/17 01:58:27;;;;;;;34.83;7.88;;;19.50;95.30;;;;;;5013754;28;20207;-72
2021/07/17 02:00:54;;;;;;;37.30;7.95;;;19.40;95.30;;;;;;5012123;28;20679;-72
2021/07/17 02:03:21;;;;;;;31.70;7.28;;;19.40;95.30;;;;;;5012172;28;20203;-72
2021/07/17 02:05:48;;;;;;;24.45;7.45;;;19.40;95.40;;;;;;5014491;28;20676;-73
2021/07/17 02:08:14;;;;;;;28.23;7.20;;;19.40;95.50;;;;;;5010739;28;20602;-73
2021/07/17 02:10:41;;;;;;;30.27;7.95;;;19.30;95.50;;;;;;5011961;28;20537;-73
2021/07/17 02:13:12;;;;;;;29.20;7.30;;;19.30;95.60;;;;;;5014715;28;20203;-70
2021/07/17 02:15:43;;;;;;;22.13;6.45;;;19.30;95.60;;;;;;5012092;28;20250;-70
2021/07/17 02:18:10;;;;;;;27.63;7.00;;;19.20;95.70;;;;;;5014581;28;20197;-71
2021/07/17 02:20:38;;;;;;;28.08;7.53;;;19.20;95.80;;;;;;5013890;28;20204;-74
2021/07/17 02:23:05;;;;;;;26.73;7.78;;;19.20;95.80;;;;;;5007226;28;20617;-72
2021/07/17 02:25:32;;;;;;;29.90;7.75;;;19.10;95.90;;;;;;5013147;28;20255;-71
2021/07/17 02:27:59;;;;;;;30.70;7.88;;;19.10;96.00;;;;;;5010954;28;20282;-70
2021/07/17 02:30:28;;;;;;;29.50;7.00;;;19.10;96.10;;;;;;5006997;28;20201;-72
2021/07/17 02:32:55;;;;;;;30.85;7.22;;;19.00;96.10;;;;;;5011416;28;20231;-73
2021/07/17 02:35:21;;;;;;;32.08;7.97;;;19.00;96.20;;;;;;5010837;28;20201;-72
2021/07/17 02:37:48;;;;;;;33.60;7.03;;;19.00;96.30;;;;;;4994108;28;20255;-72
2021/07/17 02:40:15;;;;;;;30.75;8.20;;;18.90;96.40;;;;;;5008193;28;20278;-72
2021/07/17 02:42:42;;;;;;;26.08;7.47;;;18.90;96.50;;;;;;5013592;28;20212;-71
2021/07/17 02:45:11;;;;;;;28.48;8.18;;;18.90;96.60;;;;;;5009850;28;20205;-72
2021/07/17 02:47:39;;;;;;;28.52;7.40;;;18.90;96.70;;;;;;5012870;28;20204;-69
2021/07/17 02:50:08;;;;;;;29.10;7.18;;;18.90;96.80;;;;;;5011980;28;20754;-70
2021/07/17 02:52:35;;;;;;;27.60;7.78;;;18.90;97.20;;;;;;5012999;28;20219;-72
2021/07/17 02:55:01;;;;;;;27.33;7.75;;;18.90;97.00;;;;;;5011393;28;20204;-70
2021/07/17 02:57:28;;;;;;;26.00;7.93;;;18.90;97.10;;;;;;5010577;28;20547;-69
2021/07/17 02:59:55;;;;;;;24.33;7.35;;;18.80;97.10;;;;;;5012975;28;20656;-70
2021/07/17 03:02:22;;;;;;;28.02;7.57;;;18.80;97.30;;;;;;5014392;28;20227;-72
2021/07/17 03:04:50;;;;;;;30.80;7.15;;;18.80;97.40;;;;;;5010538;28;20239;-71
2021/07/17 03:07:17;;;;;;;26.45;7.82;;;18.70;97.50;;;;;;5012938;28;20211;-72
2021/07/17 03:09:44;;;;;;;34.25;8.18;;;18.70;97.60;;;;;;5009245;28;20232;-72
2021/07/17 03:12:11;;;;;;;23.55;7.43;;;18.80;97.70;;;;;;4999678;28;20203;-69
2021/07/17 03:14:39;;;;;;;30.52;6.65;;;18.80;97.90;;;;;;5009580;28;20208;-74
2021/07/17 03:17:05;;;;;;;32.72;7.00;;;18.80;97.90;;;;;;4994852;28;20208;-69
2021/07/17 03:19:32;;;;;;;35.65;8.32;;;18.80;98.10;;;;;;5010423;28;20200;-72
2021/07/17 03:22:02;;;;;;;28.60;7.38;;;18.80;98.10;;;;;;5014638;28;20201;-70
2021/07/17 03:24:29;;;;;;;27.30;7.18;;;18.80;98.20;;;;;;5003120;28;20626;-71
2021/07/17 03:26:56;;;;;;;29.05;7.22;;;18.80;98.30;;;;;;5010751;28;20262;-71
2021/07/17 03:29:23;;;;;;;27.83;7.60;;;18.80;98.40;;;;;;5009851;28;20270;-73
2021/07/17 03:31:50;;;;;;;29.25;6.88;;;18.80;98.60;;;;;;5011897;28;20649;-72
2021/07/17 03:34:17;;;;;;;25.92;6.65;;;18.70;98.70;;;;;;5010811;28;20209;-70
2021/07/17 03:36:44;;;;;;;28.23;7.07;;;18.70;98.80;;;;;;5011944;28;20250;-71
2021/07/17 03:39:12;;;;;;;27.33;7.15;;;18.70;99.00;;;;;;5011499;28;20246;-71
2021/07/17 03:41:39;;;;;;;24.27;7.70;;;18.70;99.40;;;;;;4993545;28;20255;-73
2021/07/17 03:44:06;;;;;;;31.58;6.75;;;18.70;99.20;;;;;;5010162;28;20200;-70
2021/07/17 03:46:33;;;;;;;31.95;7.47;;;18.70;99.30;;;;;;5014266;28;20560;-70
2021/07/17 03:49:00;;;;;;;27.88;7.15;;;18.70;99.40;;;;;;5010876;28;20238;-69
2021/07/17 03:51:27;;;;;;;24.10;7.05;;;18.70;99.60;;;;;;5012557;28;20204;-72
2021/07/17 03:53:53;;;;;;;21.00;6.53;;;18.70;99.70;;;;;;5008553;28;20212;-70
2021/07/17 03:56:22;;;;;;;26.13;6.97;;;18.70;99.80;;;;;;5012922;28;20665;-72
2021/07/17 03:58:48;;;;;;;31.17;6.88;;;18.70;99.90;;;;;;5009907;28;20204;-70
2021/07/17 04:01:16;;;;;;;23.35;7.25;;;18.70;99.90;;;;;;5011049;28;20208;-70
2021/07/17 04:03:45;;;;;;;28.65;6.90;;;18.70;99.90;;;;;;5008117;28;20239;-69
2021/07/17 04:06:12;;;;;;;26.92;7.15;;;18.70;99.90;;;;;;5013233;28;20209;-72
2021/07/17 04:08:39;;;;;;;30.90;7.63;;;18.70;99.90;;;;;;5010663;28;20212;-71
2021/07/17 04:11:06;;;;;;;28.73;6.15;;;18.60;99.90;;;;;;5013216;28;20259;-73
2021/07/17 04:13:34;;;;;;;21.75;6.55;;;18.70;99.90;;;;;;5008581;28;20665;-73
2021/07/17 04:16:01;;;;;;;31.25;7.38;;;18.70;99.90;;;;;;5011173;28;20204;-70
2021/07/17 04:18:28;;;;;;;24.27;6.28;;;18.70;99.90;;;;;;4995631;28;20247;-74
2021/07/17 04:20:55;;;;;;;35.67;6.93;;;18.70;99.90;;;;;;5011786;28;20208;-71
2021/07/17 04:23:22;;;;;;;26.95;5.90;;;18.70;99.90;;;;;;5007385;28;20212;-69
2021/07/17 04:25:48;;;;;;;28.50;6.15;;;18.70;99.90;;;;;;5012817;28;20976;-69
2021/07/17 04:28:15;;;;;;;28.17;6.10;;;18.70;99.90;;;;;;5013286;28;20205;-71
2021/07/17 04:30:46;;;;;;;23.60;5.63;;;18.70;99.90;;;;;;5010473;28;20224;-70
2021/07/17 04:33:13;;;;;;;27.45;6.75;;;18.80;99.90;;;;;;5008790;28;20235;-71
2021/07/17 04:35:41;;;;;;;17.75;5.30;;;18.80;99.90;;;;;;5012981;28;20204;-69
2021/07/17 04:38:08;;;;;;;22.35;5.75;;;18.80;99.90;;;;;;5012190;28;20192;-68
2021/07/17 04:40:35;;;;;;;19.58;5.03;;;18.80;99.90;;;;;;5013084;28;20201;-70
2021/07/17 04:43:02;;;;;;;22.13;5.32;;;18.80;99.90;;;;;;4999008;28;20209;-72
2021/07/17 04:45:28;;;;;;;20.80;5.70;;;18.80;99.90;;;;;;5011162;28;20208;-71
2021/07/17 04:47:57;;;;;;;20.50;5.90;;;18.80;99.90;;;;;;5011240;28;20192;-71
2021/07/17 04:50:23;;;;;;;19.75;5.00;;;18.80;99.90;;;;;;5002032;28;21853;-73
2021/07/17 04:52:50;;;;;;;22.02;5.55;;;18.80;99.90;;;;;;5011371;28;20208;-74
2021/07/17 04:55:18;;;;;;;23.02;5.63;;;18.90;99.90;;;;;;5006149;28;20214;-70
2021/07/17 04:57:44;;;;;;;25.70;5.70;;;18.90;99.90;;;;;;5009571;28;20196;-69
2021/07/17 05:00:13;;;;;;;23.42;5.03;;;18.90;99.90;;;;;;4994118;28;20205;-71
2021/07/17 05:02:47;;;;;;;20.13;5.10;;;18.90;99.90;;;;;;4995851;28;20262;-70
2021/07/17 05:05:17;;;;;;;21.95;5.20;;;18.90;99.90;;;;;;5010926;28;20199;-71
2021/07/17 05:07:44;;;;;;;23.60;5.30;;;18.90;99.90;;;;;;5015686;28;20224;-69
2021/07/17 05:37:51;;;;;;;16.73;4.63;;;18.70;99.90;;;;;;5148535;27;20494;-69
2021/07/17 05:40:17;;;;;;;18.45;4.95;;;18.70;99.90;;;;;;5145287;27;20572;-70
2021/07/17 05:42:45;;;;;;;16.92;4.68;;;18.70;99.90;;;;;;5148402;27;20241;-68
2021/07/17 05:45:13;;;;;;;20.80;4.95;;;18.80;99.90;;;;;;5145959;27;20207;-69
2021/07/17 05:47:40;;;;;;;16.50;4.57;;;18.80;99.90;;;;;;5145551;27;20241;-69
2021/07/17 05:50:07;;;;;;;23.13;4.70;;;18.90;99.90;;;;;;5143760;27;20546;-69
2021/07/17 05:52:34;;;;;;;21.90;4.63;;;18.90;99.90;;;;;;5147212;27;20580;-70
2021/07/17 05:55:03;;;;;;;20.88;5.05;;;19.00;99.90;;;;;;5143908;27;20276;-70
2021/07/17 05:57:31;;;;;;;15.32;4.80;;;19.00;99.90;;;;;;5147828;27;20215;-69
2021/07/17 05:59:58;;;;;;;13.45;4.40;;;19.10;99.90;;;;;;5146139;27;20663;-68
2021/07/17 06:02:26;;;;;;;18.13;4.68;;;19.10;99.90;;;;;;5146273;27;20602;-70
2021/07/17 06:04:53;;;;;;;17.77;4.55;;;19.10;99.90;;;;;;5144750;27;20660;-68
2021/07/17 06:07:20;;;;;;;20.67;6.55;;;19.20;99.90;;;;;;5148263;27;20192;-71
2021/07/17 06:09:47;;;;;;;27.48;5.10;;;19.20;99.90;;;;;;5144817;27;20732;-71
2021/07/17 06:12:15;;;;;;;18.35;4.50;;;19.20;99.90;;;;;;5147202;27;20196;-71
2021/07/17 06:14:42;;;;;;;11.15;4.10;;;19.30;99.90;;;;;;5144868;27;20208;-75
2021/07/17 06:17:11;;;;;;;13.18;4.35;;;19.30;99.90;;;;;;5144775;27;20219;-72
2021/07/17 06:19:38;;;;;;;19.65;4.50;;;19.40;99.90;;;;;;5145562;27;20211;-71
2021/07/17 06:22:05;;;;;;;12.75;3.83;;;19.40;99.90;;;;;;5147601;27;20203;-72
2021/07/17 06:24:32;;;;;;;20.10;4.10;;;19.40;99.90;;;;;;5143249;27;20256;-71
2021/07/17 06:27:00;;;;;;;17.42;4.05;;;19.50;99.90;;;;;;5146121;27;20196;-71
2021/07/17 06:29:28;;;;;;;16.17;4.72;;;19.40;99.90;;;;;;5144521;27;20192;-71
2021/07/17 06:31:55;;;;;;;16.00;4.10;;;19.50;99.90;;;;;;5144637;27;20196;-72
2021/07/17 06:34:25;;;;;;;12.93;3.50;;;19.50;99.90;;;;;;5143152;27;20207;-72
2021/07/17 06:36:51;;;;;;;12.63;4.07;;;19.60;99.90;;;;;;5146914;27;20753;-70
2021/07/17 06:39:21;;;;;;;15.88;3.97;;;19.60;99.90;;;;;;5138406;27;20207;-72
2021/07/17 06:41:50;;;;;;;14.02;3.83;;;19.60;99.90;;;;;;5137364;27;20628;-73
2021/07/17 06:44:23;;;;;;;17.10;3.88;;;19.70;99.90;;;;;;5141860;27;20292;-71
2021/07/17 06:46:54;;;;;;;13.48;3.67;;;19.70;99.90;;;;;;5144338;27;20196;-72
2021/07/17 06:49:21;;;;;;;18.17;4.10;;;19.70;99.90;;;;;;5123581;27;20196;-72
2021/07/17 06:51:48;;;;;;;16.25;4.22;;;19.70;99.90;;;;;;5132067;27;20699;-72
2021/07/17 06:54:16;;;;;;;14.60;3.90;;;19.80;99.90;;;;;;5127601;27;20204;-74
2021/07/17 06:56:43;;;;;;;14.35;3.78;;;19.80;99.90;;;;;;5133670;27;20208;-72
2021/07/17 06:59:10;;;;;;;10.95;3.42;;;19.80;99.90;;;;;;5130557;27;20197;-73
2021/07/17 07:01:37;;;;;;;13.20;4.25;;;19.80;99.90;;;;;;5129639;27;20208;-73
2021/07/17 07:04:05;;;;;;;15.63;3.97;;;19.90;99.90;;;;;;5129079;27;20195;-70
2021/07/17 07:06:32;;;;;;;15.75;3.58;;;19.90;99.90;;;;;;5133072;27;20241;-70
2021/07/17 07:08:59;;;;;;;12.68;3.70;;;19.90;99.90;;;;;;5132258;27;20220;-68
2021/07/17 07:11:26;;;;;;;15.93;4.20;;;19.90;99.90;;;;;;5131096;27;20203;-72
2021/07/17 07:13:56;;;;;;;13.82;3.95;;;20.00;99.90;;;;;;5131951;27;20245;-71
2021/07/17 07:16:23;;;;;;;14.65;3.55;;;20.00;99.90;;;;;;5133243;27;20569;-69
2021/07/17 07:18:49;;;;;;;10.52;3.75;;;20.10;99.90;;;;;;5130316;27;20196;-69
2021/07/17 07:21:21;;;;;;;10.10;3.40;;;20.10;99.90;;;;;;5133079;27;20223;-71
2021/07/17 07:23:48;;;;;;;12.63;3.63;;;20.10;99.90;;;;;;5130293;27;20546;-71
2021/07/17 07:26:15;;;;;;;15.05;3.65;;;20.20;99.90;;;;;;5133028;27;20279;-70
2021/07/17 07:28:41;;;;;;;14.18;3.78;;;20.20;99.90;;;;;;5128736;27;22342;-70
2021/07/17 07:31:08;;;;;;;13.50;4.00;;;20.20;99.90;;;;;;5128807;27;20275;-69
2021/07/17 07:33:35;;;;;;;13.27;3.75;;;20.30;99.90;;;;;;5131100;27;20196;-69
2021/07/17 07:36:02;;;;;;;10.25;3.30;;;20.30;99.90;;;;;;5131086;27;20254;-70
2021/07/17 07:38:30;;;;;;;10.07;3.25;;;20.30;99.90;;;;;;5127647;27;20214;-69
2021/07/17 07:40:57;;;;;;;12.43;3.00;;;20.40;99.90;;;;;;5129464;27;20269;-69
2021/07/17 07:43:24;;;;;;;10.43;3.22;;;20.40;99.90;;;;;;5131316;27;20200;-70
2021/07/17 07:45:51;;;;;;;17.27;3.85;;;20.40;99.90;;;;;;5131962;27;20575;-70
2021/07/17 07:48:17;;;;;;;11.25;3.20;;;20.50;99.90;;;;;;5131927;27;20197;-69
2021/07/17 07:50:44;;;;;;;12.02;3.67;;;20.50;99.90;;;;;;5129221;27;20205;-70
2021/07/17 07:53:11;;;;;;;15.93;3.50;;;20.60;99.90;;;;;;5129994;27;20200;-69
2021/07/17 07:55:39;;;;;;;13.95;3.22;;;20.60;99.90;;;;;;5127727;27;20220;-69
2021/07/17 07:58:06;;;;;;;9.63;3.10;;;20.60;99.70;;;;;;5130758;27;20269;-69
2021/07/17 08:00:33;;;;;;;10.35;3.08;;;20.70;99.20;;;;;;5127759;27;20208;-69
2021/07/17 08:03:00;;;;;;;10.25;2.90;;;20.70;99.40;;;;;;5131866;27;20533;-69
2021/07/17 08:05:27;;;;;;;7.35;2.33;;;20.80;99.20;;;;;;5130269;27;20200;-71
2021/07/17 08:07:54;;;;;;;12.63;3.03;;;20.80;99.00;;;;;;5127275;27;20502;-70
2021/07/17 08:10:22;;;;;;;11.45;2.90;;;20.80;98.80;;;;;;5129715;27;20291;-70
2021/07/17 08:12:50;;;;;;;10.77;3.00;;;20.90;98.60;;;;;;5130715;27;20218;-70
2021/07/17 08:15:17;;;;;;;10.40;2.70;;;20.90;98.40;;;;;;5129864;27;20208;-69
2021/07/17 08:17:44;;;;;;;7.50;2.58;;;21.00;98.20;;;;;;5131017;27;20212;-69
2021/07/17 08:20:12;;;;;;;11.30;3.00;;;21.00;98.00;;;;;;5128638;27;20246;-69
2021/07/17 08:22:40;;;;;;;6.32;1.77;;;21.10;97.80;;;;;;5131146;27;20683;-67
2021/07/17 08:25:08;;;;;;;9.82;2.28;;;21.20;97.40;;;;;;5129906;27;20208;-67
2021/07/17 08:27:35;;;;;;;5.57;2.30;;;21.20;96.80;;;;;;5131533;27;20184;-67
2021/07/17 08:30:09;;;;;;;6.47;2.03;;;21.20;96.20;;;;;;5130280;27;20205;-67
2021/07/17 08:32:39;;;;;;;5.05;1.98;;;21.30;95.70;;;;;;5125048;27;20196;-68
2021/07/17 08:35:07;;;;;;;9.70;2.70;;;21.40;95.20;;;;;;5129830;27;20208;-69
2021/07/17 08:37:34;;;;;;;10.95;2.35;;;21.40;94.80;;;;;;5129287;27;20228;-70
2021/07/17 08:40:03;;;;;;;14.05;2.22;;;21.40;94.50;;;;;;5122512;27;20202;-70
2021/07/17 08:42:35;;;;;;;7.38;2.10;;;21.50;94.20;;;;;;5130179;27;20205;-71
2021/07/17 08:45:06;;;;;;;6.15;2.40;;;21.50;93.90;;;;;;5129752;27;20656;-69
2021/07/17 08:47:37;;;;;;;14.82;3.00;;;21.60;93.70;;;;;;5129801;27;20203;-69
2021/07/17 08:50:09;;;;;;;6.78;2.10;;;21.60;93.50;;;;;;5125969;27;20272;-71
2021/07/17 08:52:41;;;;;;;10.52;2.28;;;21.70;93.20;;;;;;5128734;27;20605;-68
2021/07/17 08:55:13;;;;;;;6.72;2.40;;;21.70;93.00;;;;;;5128169;27;20202;-68
2021/07/17 08:57:42;;;;;;;5.93;2.15;;;21.80;92.80;;;;;;5130021;27;20244;-70
2021/07/17 09:00:14;;;;;;;4.38;1.85;;;21.80;92.50;;;;;;5126445;27;20253;-71
2021/07/17 09:02:46;;;;;;;7.47;2.03;;;21.90;92.50;;;;;;5127957;27;20231;-69
2021/07/17 09:05:18;;;;;;;7.10;2.00;;;22.00;92.30;;;;;;5128406;27;20199;-71
2021/07/17 09:07:46;;;;;;;6.25;2.30;;;22.00;92.10;;;;;;5130797;27;20196;-72
2021/07/17 09:10:32;;;;;;;8.68;2.42;;;22.10;92.00;;;;;;5128128;27;20830;-69
2021/07/17 09:13:11;;;;;;;6.10;1.83;;;22.20;91.70;;;;;;5125188;27;20216;-71
2021/07/17 09:15:42;;;;;;;8.63;2.40;;;22.20;91.50;;;;;;5128216;27;20196;-69
2021/07/17 09:18:16;;;;;;;5.05;1.83;;;22.20;91.30;;;;;;5128913;27;20192;-72
2021/07/17 09:20:58;;;;;;;6.43;2.35;;;22.30;91.00;;;;;;5129351;27;20828;-69
2021/07/17 09:23:30;;;;;;;3.97;1.83;;;22.30;90.60;;;;;;5128442;27;20241;-71
2021/07/17 09:25:57;;;;;;;7.95;1.83;;;22.40;90.40;;;;;;5128173;27;20204;-72
2021/07/17 09:28:27;;;;;;;4.18;1.98;;;22.40;90.20;;;;;;5129265;27;20295;-69
2021/07/17 09:30:58;;;;;;;9.00;2.28;;;22.50;90.40;;;;;;5129339;27;20197;-71
2021/07/17 09:33:25;;;;;;;4.72;2.25;;;22.50;90.30;;;;;;5128384;27;22738;-71
2021/07/17 09:35:54;;;;;;;11.20;2.20;;;22.60;90.30;;;;;;5128911;28;20224;-69
2021/07/17 09:38:22;;;;;;;5.03;2.30;;;22.70;90.20;;;;;;5126246;28;20200;-70
2021/07/17 09:40:52;;;;;;;3.75;1.80;;;22.70;89.70;;;;;;5129007;27;20200;-69
2021/07/17 09:43:34;;;;;;;5.00;2.00;;;22.80;89.30;;;;;;5129333;28;20197;-69
2021/07/17 09:46:19;;;;;;;7.78;2.00;;;22.90;88.90;;;;;;5128232;28;20211;-69
2021/07/17 09:48:48;;;;;;;4.60;1.52;;;22.90;88.30;;;;;;5124566;28;20683;-71
2021/07/17 09:51:20;;;;;;;9.05;2.05;;;23.00;87.80;;;;;;5123775;27;20231;-72
2021/07/17 09:53:50;;;;;;;6.55;1.83;;;23.10;86.50;;;;;;5126892;28;20200;-70
2021/07/17 09:56:19;;;;;;;5.97;1.73;;;23.10;86.10;;;;;;5129682;28;20206;-70
2021/07/17 09:58:46;;;;;;;4.82;1.73;;;23.20;86.30;;;;;;5126990;28;20193;-70
2021/07/17 10:01:28;;;;;;;5.15;1.67;;;23.30;85.80;;;;;;5128111;28;20567;-71
2021/07/17 10:03:59;;;;;;;4.80;1.40;;;23.30;85.20;;;;;;5127823;27;20253;-70
2021/07/17 10:06:35;;;;;;;3.35;1.48;;;23.40;84.80;;;;;;5129056;27;20235;-70
2021/07/17 10:09:05;;;;;;;3.33;1.50;;;23.50;83.90;;;;;;5127589;27;20264;-70
2021/07/17 10:11:32;;;;;;;3.90;1.63;;;23.60;83.30;;;;;;5129765;27;20196;-68
2021/07/17 10:13:59;;;;;;;5.18;1.73;;;23.60;82.40;;;;;;5127730;28;20204;-65
2021/07/17 10:16:28;;;;;;;3.78;1.60;;;23.70;82.50;;;;;;5129723;27;20205;-66
2021/07/17 10:18:56;;;;;;;7.30;2.05;;;23.70;82.10;;;;;;5128261;28;20659;-66
2021/07/17 10:21:24;;;;;;;3.65;1.50;;;23.80;81.80;;;;;;5130130;28;20253;-66
2021/07/17 10:23:51;;;;;;;3.60;1.38;;;23.80;81.50;;;;;;5130461;27;20250;-66
2021/07/17 10:26:18;;;;;;;3.78;1.60;;;23.90;81.10;;;;;;5131100;27;20196;-65
2021/07/17 10:28:44;;;;;;;4.32;1.70;;;23.90;80.50;;;;;;5130242;27;20225;-65
2021/07/17 10:31:11;;;;;;;4.18;1.52;;;24.00;80.20;;;;;;5132713;27;20208;-66
2021/07/17 10:33:40;;;;;;;4.95;1.80;;;24.10;79.20;;;;;;5131065;27;20208;-67
2021/07/17 10:36:11;;;;;;;4.53;1.38;;;24.20;78.70;;;;;;5130168;27;20247;-70
2021/07/17 10:38:43;;;;;;;4.10;1.40;;;24.20;78.20;;;;;;5130577;27;20212;-70
2021/07/17 10:41:14;;;;;;;3.38;1.20;;;24.20;77.30;;;;;;5134090;27;20208;-70
2021/07/17 10:43:41;;;;;;;5.53;1.60;;;24.30;76.80;;;;;;5132378;27;20196;-70
2021/07/17 10:46:26;;;;;;;3.65;1.40;;;24.50;76.50;;;;;;5132462;27;20204;-69
2021/07/17 10:48:56;;;;;;;4.35;1.30;;;24.60;76.40;;;;;;5126941;27;20707;-71
2021/07/17 10:51:32;;;;;;;3.40;1.30;;;24.70;75.70;;;;;;5133273;27;20197;-69
2021/07/17 10:54:00;;;;;;;5.40;1.45;;;24.80;75.10;;;;;;5129190;27;20668;-71
2021/07/17 10:56:39;;;;;;;5.88;2.00;;;24.90;74.60;;;;;;5133786;27;20686;-70
2021/07/17 10:59:11;;;;;;;5.00;1.60;;;25.00;74.20;;;;;;5130788;27;20275;-70
2021/07/17 11:02:04;;;;;;;7.43;3.05;;;25.10;73.60;;;;;;5131235;27;20209;-72
2021/07/17 11:04:35;;;;;;;11.15;3.45;;;25.20;75.20;;;;;;5131205;27;20231;-72
2021/07/17 11:07:38;;;;;;;7.03;2.03;;;25.20;76.90;;;;;;5133291;27;20568;-71
2021/07/17 11:10:19;;;;;;;10.45;3.67;;;25.30;76.80;;;;;;5128914;27;20612;-70
2021/07/17 11:12:48;;;;;;;16.40;4.32;;;25.40;77.60;;;;;;5132063;27;20192;-70
2021/07/17 11:15:36;;;;;;;9.98;3.10;;;25.50;78.60;;;;;;5131500;27;20199;-70
2021/07/17 11:18:32;;;;;;;10.45;2.40;;;25.50;78.00;;;;;;5132411;27;20199;-71
2021/07/17 11:21:01;;;;;;;12.73;3.33;;;25.60;77.20;;;;;;5132992;27;20205;-72
2021/07/17 11:23:34;;;;;;;4.38;1.40;;;25.60;77.60;;;;;;5129899;27;20718;-71
2021/07/17 11:26:04;;;;;;;4.20;1.40;;;25.80;73.40;;;;;;5131958;27;20222;-70
2021/07/17 11:32:09;;;;;;;4.35;1.85;;;25.90;72.00;;;;;;5126619;27;20511;-70
2021/07/17 11:34:38;;;;;;;10.75;2.95;;;25.90;72.30;;;;;;5124408;27;20664;-71
2021/07/17 12:47:05;;;;;;;8.00;1.60;;;30.10;52.40;;;;;;5107226;27;20492;-69
2021/07/17 12:49:32;;;;;;;3.85;1.38;;;30.10;52.90;;;;;;5106017;28;20199;-70
2021/07/17 12:51:59;;;;;;;5.75;1.23;;;30.00;53.20;;;;;;5102305;28;20213;-69
2021/07/17 12:54:29;;;;;;;2.58;1.15;;;30.00;53.30;;;;;;5103847;28;20193;-69
2021/07/17 12:56:58;;;;;;;3.55;1.02;;;30.10;53.00;;;;;;5107001;28;20254;-69
2021/07/17 12:59:29;;;;;;;1.83;0.95;;;30.20;53.20;;;;;;5104933;28;20260;-69
2021/07/17 13:01:58;;;;;;;5.97;1.10;;;30.30;52.70;;;;;;5105539;28;20201;-66
2021/07/17 13:04:28;;;;;;;7.70;1.45;;;30.50;52.50;;;;;;5103244;28;20196;-68
2021/07/17 13:06:57;;;;;;;3.25;1.08;;;30.60;52.20;;;;;;5104010;28;20754;-69
2021/07/17 13:09:27;;;;;;;3.60;0.90;;;30.70;52.30;;;;;;5104616;28;20266;-68
2021/07/17 13:11:54;;;;;;;4.40;1.20;;;30.70;52.40;;;;;;5106638;28;20226;-68
2021/07/17 13:14:24;;;;;;;3.90;1.50;;;30.90;52.40;;;;;;5104602;28;20604;-67
2021/07/17 13:16:52;;;;;;;4.32;1.00;;;30.90;52.20;;;;;;5105988;28;20685;-69
2021/07/17 13:19:22;;;;;;;4.70;1.10;;;31.00;52.10;;;;;;5104910;28;20556;-69
2021/07/17 13:22:49;;;;;;;3.65;1.05;;;31.20;51.60;;;;;;5125628;27;20517;-68
2021/07/17 13:25:18;;;;;;;5.63;1.23;;;31.20;51.10;;;;;;5122479;27;20256;-67
2021/07/17 13:27:46;;;;;;;3.97;1.20;;;31.20;51.00;;;;;;5123687;28;20195;-66
2021/07/17 13:30:14;;;;;;;4.60;1.10;;;31.30;51.30;;;;;;5126237;27;20204;-66
2021/07/17 13:32:43;;;;;;;4.38;1.63;;;31.40;51.40;;;;;;5126218;28;20256;-68
2021/07/17 13:35:18;;;;;;;5.15;1.70;;;31.40;52.10;;;;;;5125002;27;20718;-64
2021/07/17 13:37:46;;;;;;;8.00;1.92;;;31.50;52.00;;;;;;5126754;28;20261;-66
2021/07/17 13:40:26;;;;;;;5.65;1.90;;;31.60;52.10;;;;;;5124974;27;20199;-64
2021/07/17 13:42:53;;;;;;;5.50;1.88;;;31.70;51.70;;;;;;5127358;28;20196;-66
2021/07/17 13:45:25;;;;;;;6.53;1.80;;;31.80;51.80;;;;;;5124980;27;20196;-65
2021/07/17 13:47:56;;;;;;;8.45;2.22;;;31.90;51.60;;;;;;5125649;28;20200;-64
2021/07/17 13:50:28;;;;;;;8.85;2.30;;;32.10;51.40;;;;;;5126481;27;20248;-65
2021/07/17 13:53:04;;;;;;;9.48;2.55;;;32.10;50.80;;;;;;5123203;27;20204;-66
2021/07/17 13:55:35;;;;;;;16.33;3.10;;;32.20;50.60;;;;;;5124387;27;20211;-69
2021/07/17 13:58:06;;;;;;;8.73;2.40;;;32.30;50.30;;;;;;5127094;28;20199;-65
2021/07/17 14:00:49;;;;;;;9.88;2.97;;;32.30;50.30;;;;;;5123150;27;20727;-69
2021/07/17 14:03:18;;;;;;;10.00;3.03;;;32.40;50.20;;;;;;5126452;28;20249;-68
2021/07/17 14:05:46;;;;;;;8.38;2.63;;;32.60;50.80;;;;;;5125473;27;20663;-69
2021/07/17 14:08:12;;;;;;;11.25;2.60;;;32.70;49.90;;;;;;5127492;27;20211;-69
2021/07/17 14:10:41;;;;;;;9.07;2.25;;;32.80;49.80;;;;;;5122360;28;20253;-69
2021/07/17 14:13:07;;;;;;;7.03;2.20;;;33.00;49.70;;;;;;5126452;28;20200;-70
2021/07/17 14:15:36;;;;;;;5.03;2.13;;;33.10;49.50;;;;;;5125288;27;20196;-68
2021/07/17 14:18:03;;;;;;;9.18;2.50;;;33.30;49.10;;;;;;5125133;28;20212;-69
2021/07/17 14:20:30;;;;;;;7.75;2.38;;;33.30;48.40;;;;;;5122776;27;20229;-69
2021/07/17 14:22:57;;;;;;;6.13;2.05;;;33.50;48.40;;;;;;5125768;28;20216;-71
2021/07/17 14:25:24;;;;;;;6.03;1.73;;;33.60;48.20;;;;;;5124529;28;20215;-69
2021/07/17 14:27:52;;;;;;;6.53;1.83;;;33.80;47.80;;;;;;5126557;27;20199;-69
2021/07/17 14:30:19;;;;;;;6.55;1.77;;;34.00;47.10;;;;;;5125132;28;20208;-71